PUE731 MDPC-SAEZ
Flight info
| Callsign | PUE731 |
|---|---|
| Flight time | N/A |
| Altitude | 35000 |
| Route | MELLA2T MELLA G633 DDP DCT GEECE UL776 KORTO UG449 LEPOD UA312 TIM/N0480F360 UL322 MNS UM402 SIPAK/N0474F380 UM402 UBKAB/N0473F370 UM402 SIDAK/N0471F380 UM402 MIGOT UL324 KUKEN KUKEN7B |
| Aircraft | A346/H-SDE2E3FGHIJ3J4J5M1RWXY/LB1D1 |
Departure
| Time | N/A |
|---|---|
| Airport | Punta Cana International Airport (MDPC) |
Arrival
| Time | 2026-05-03 20:34 |
|---|---|
| Airport | Ezeiza International Airport - Ministro Pistarini (SAEZ) |
| Time | Latitude | Longitude | Altitude | Speed | Heading |
|---|---|---|---|---|---|
| 2026-05-03 20:15 | -34.20901 | -58.21581 | 15725 ft | 398 kts | 177° |
| 2026-05-03 20:15 | -34.23689 | -58.20914 | 15486 ft | 402 kts | 171° |
| 2026-05-03 20:15 | -34.26373 | -58.20099 | 15237 ft | 401 kts | 169° |
| 2026-05-03 20:15 | -34.29072 | -58.19253 | 14986 ft | 400 kts | 169° |
| 2026-05-03 20:16 | -34.31775 | -58.18402 | 14703 ft | 399 kts | 169° |
| 2026-05-03 20:16 | -34.34458 | -58.17559 | 14351 ft | 397 kts | 169° |
| 2026-05-03 20:16 | -34.37180 | -58.16709 | 13966 ft | 396 kts | 169° |
| 2026-05-03 20:16 | -34.39803 | -58.15894 | 13593 ft | 394 kts | 169° |
| 2026-05-03 20:17 | -34.42461 | -58.15071 | 13225 ft | 392 kts | 169° |
| 2026-05-03 20:17 | -34.45146 | -58.14245 | 12831 ft | 391 kts | 169° |
| 2026-05-03 20:17 | -34.47742 | -58.13453 | 12437 ft | 389 kts | 169° |
| 2026-05-03 20:17 | -34.50382 | -58.12651 | 11954 ft | 388 kts | 169° |
| 2026-05-03 20:18 | -34.52996 | -58.11862 | 11449 ft | 385 kts | 169° |
| 2026-05-03 20:18 | -34.55594 | -58.11089 | 10947 ft | 383 kts | 169° |
| 2026-05-03 20:18 | -34.58195 | -58.10332 | 10463 ft | 382 kts | 169° |
| 2026-05-03 20:18 | -34.60792 | -58.09593 | 10034 ft | 382 kts | 169° |
| 2026-05-03 20:19 | -34.63392 | -58.08867 | 9634 ft | 379 kts | 169° |
| 2026-05-03 20:19 | -34.65950 | -58.08165 | 9458 ft | 366 kts | 169° |
| 2026-05-03 20:19 | -34.68391 | -58.07504 | 9304 ft | 352 kts | 169° |
| 2026-05-03 20:19 | -34.70718 | -58.06876 | 9172 ft | 338 kts | 169° |
| 2026-05-03 20:20 | -34.72981 | -58.06265 | 9038 ft | 325 kts | 169° |
| 2026-05-03 20:20 | -34.75145 | -58.05681 | 8878 ft | 311 kts | 169° |
| 2026-05-03 20:20 | -34.77214 | -58.05120 | 8771 ft | 302 kts | 169° |
| 2026-05-03 20:20 | -34.79279 | -58.04558 | 8512 ft | 302 kts | 169° |
| 2026-05-03 20:21 | -34.81337 | -58.03996 | 8197 ft | 300 kts | 169° |
| 2026-05-03 20:21 | -34.83369 | -58.03442 | 7878 ft | 298 kts | 169° |
| 2026-05-03 20:21 | -34.85383 | -58.02894 | 7578 ft | 296 kts | 169° |
| 2026-05-03 20:21 | -34.87411 | -58.02345 | 7255 ft | 296 kts | 169° |
| 2026-05-03 20:22 | -34.89425 | -58.01800 | 6926 ft | 294 kts | 169° |
| 2026-05-03 20:22 | -34.91417 | -58.01263 | 6600 ft | 292 kts | 169° |
| 2026-05-03 20:22 | -34.93404 | -58.00728 | 6296 ft | 290 kts | 169° |
| 2026-05-03 20:22 | -34.95381 | -58.00196 | 6020 ft | 290 kts | 169° |
| 2026-05-03 20:23 | -34.97356 | -57.99668 | 5738 ft | 289 kts | 169° |
| 2026-05-03 20:23 | -34.99316 | -57.99147 | 5465 ft | 286 kts | 169° |
| 2026-05-03 20:23 | -35.01261 | -57.98670 | 5192 ft | 283 kts | 176° |
| 2026-05-03 20:23 | -35.03146 | -57.99061 | 5096 ft | 274 kts | 213° |
| 2026-05-03 20:24 | -35.04485 | -58.00639 | 5123 ft | 266 kts | 244° |
| 2026-05-03 20:24 | -35.05057 | -58.02757 | 5127 ft | 260 kts | 268° |
| 2026-05-03 20:24 | -35.05142 | -58.04242 | 5134 ft | 259 kts | 270° |
| 2026-05-03 20:24 | -35.05245 | -58.06432 | 5126 ft | 259 kts | 270° |
| 2026-05-03 20:25 | -35.05367 | -58.08657 | 5016 ft | 259 kts | 269° |
| 2026-05-03 20:25 | -35.05509 | -58.10852 | 4884 ft | 259 kts | 269° |
| 2026-05-03 20:25 | -35.05665 | -58.13051 | 4768 ft | 259 kts | 268° |
| 2026-05-03 20:25 | -35.05828 | -58.15245 | 4638 ft | 258 kts | 268° |
| 2026-05-03 20:26 | -35.05995 | -58.17432 | 4512 ft | 258 kts | 268° |
| 2026-05-03 20:26 | -35.06163 | -58.19599 | 4387 ft | 258 kts | 268° |
| 2026-05-03 20:26 | -35.06336 | -58.21814 | 4260 ft | 258 kts | 268° |
| 2026-05-03 20:26 | -35.06508 | -58.24005 | 4131 ft | 258 kts | 268° |
| 2026-05-03 20:27 | -35.06677 | -58.26156 | 3996 ft | 258 kts | 268° |
| 2026-05-03 20:27 | -35.06851 | -58.28389 | 3876 ft | 257 kts | 268° |
| 2026-05-03 20:27 | -35.07022 | -58.30562 | 3748 ft | 257 kts | 268° |
| 2026-05-03 20:27 | -35.07191 | -58.32743 | 3622 ft | 257 kts | 268° |
| 2026-05-03 20:28 | -35.07360 | -58.34929 | 3498 ft | 257 kts | 268° |
| 2026-05-03 20:28 | -35.07530 | -58.37105 | 3358 ft | 257 kts | 268° |
| 2026-05-03 20:28 | -35.07700 | -58.39274 | 3238 ft | 252 kts | 268° |
| 2026-05-03 20:28 | -35.07783 | -58.41369 | 3129 ft | 237 kts | 283° |
| 2026-05-03 20:29 | -35.07164 | -58.43097 | 3037 ft | 220 kts | 315° |
| 2026-05-03 20:29 | -35.05983 | -58.44288 | 2936 ft | 214 kts | 331° |
| 2026-05-03 20:29 | -35.04633 | -58.45037 | 2819 ft | 211 kts | 339° |
| 2026-05-03 20:29 | -35.03281 | -58.45570 | 2793 ft | 196 kts | 342° |
| 2026-05-03 20:30 | -35.02016 | -58.46015 | 2743 ft | 183 kts | 342° |
| 2026-05-03 20:30 | -35.00812 | -58.46428 | 2584 ft | 175 kts | 341° |
| 2026-05-03 20:30 | -34.99627 | -58.46837 | 2406 ft | 178 kts | 340° |
| 2026-05-03 20:30 | -34.98435 | -58.47253 | 2221 ft | 183 kts | 340° |
| 2026-05-03 20:31 | -34.97171 | -58.47695 | 2216 ft | 186 kts | 341° |
| 2026-05-03 20:31 | -34.95922 | -58.48130 | 2206 ft | 186 kts | 341° |
| 2026-05-03 20:31 | -34.94668 | -58.48567 | 2210 ft | 187 kts | 341° |
| 2026-05-03 20:31 | -34.93417 | -58.49003 | 2145 ft | 187 kts | 341° |
| 2026-05-03 20:32 | -34.92175 | -58.49438 | 1898 ft | 187 kts | 342° |
| 2026-05-03 20:32 | -34.90921 | -58.49878 | 1642 ft | 179 kts | 344° |
| 2026-05-03 20:32 | -34.89774 | -58.50279 | 1404 ft | 167 kts | 346° |
| 2026-05-03 20:32 | -34.88691 | -58.50656 | 1202 ft | 153 kts | 345° |
| 2026-05-03 20:33 | -34.87678 | -58.51009 | 1007 ft | 149 kts | 345° |
| 2026-05-03 20:33 | -34.86685 | -58.51355 | 813 ft | 149 kts | 345° |
| 2026-05-03 20:33 | -34.85689 | -58.51702 | 620 ft | 148 kts | 345° |
| 2026-05-03 20:33 | -34.84683 | -58.52053 | 404 ft | 148 kts | 345° |
| 2026-05-03 20:34 | -34.83690 | -58.52398 | 216 ft | 148 kts | 345° |
| 2026-05-03 20:34 | -34.82720 | -58.52734 | 92 ft | 135 kts | 343° |
| 2026-05-03 20:34 | -34.82033 | -58.52978 | 90 ft | 70 kts | 344° |
| 2026-05-03 20:34 | -34.81739 | -58.53080 | 91 ft | 34 kts | 344° |
| 2026-05-03 20:35 | -34.81594 | -58.53131 | 91 ft | 17 kts | 339° |
| 2026-05-03 20:35 | -34.81522 | -58.53233 | 90 ft | 13 kts | 301° |
| 2026-05-03 20:35 | -34.81480 | -58.53323 | 89 ft | 12 kts | 298° |
| 2026-05-03 20:35 | -34.81449 | -58.53391 | 84 ft | 0 kts | 298° |
| 2026-05-03 20:36 | -34.81444 | -58.53403 | 84 ft | 3 kts | 298° |
| 2026-05-03 20:36 | -34.81427 | -58.53441 | 84 ft | 7 kts | 298° |
| 2026-05-03 20:36 | -34.81400 | -58.53502 | 88 ft | 5 kts | 298° |
| 2026-05-03 20:36 | -34.81380 | -58.53552 | 88 ft | 8 kts | 290° |
| 2026-05-03 20:37 | -34.81407 | -58.53602 | 84 ft | 9 kts | 200° |
| 2026-05-03 20:37 | -34.81467 | -58.53627 | 88 ft | 6 kts | 203° |
| 2026-05-03 20:37 | -34.81513 | -58.53652 | 83 ft | 9 kts | 204° |
| 2026-05-03 20:37 | -34.81574 | -58.53702 | 83 ft | 12 kts | 224° |
| 2026-05-03 20:38 | -34.81610 | -58.53745 | 88 ft | 5 kts | 224° |
| 2026-05-03 20:38 | -34.81631 | -58.53771 | 83 ft | 0 kts | 224° |
| 2026-05-03 20:38 | -34.81642 | -58.53783 | 83 ft | 4 kts | 228° |
| 2026-05-03 20:38 | -34.81646 | -58.53814 | 83 ft | 4 kts | 295° |
| 2026-05-03 20:39 | -34.81619 | -58.53824 | 87 ft | 6 kts | 353° |
| 2026-05-03 20:39 | -34.81571 | -58.53835 | 83 ft | 4 kts | 347° |
| 2026-05-03 20:39 | -34.81543 | -58.53842 | 83 ft | 3 kts | 348° |
| 2026-05-03 20:39 | -34.81523 | -58.53847 | 83 ft | 2 kts | 349° |
| 2026-05-03 20:40 | -34.81518 | -58.53848 | 83 ft | 0 kts | 349° |
| 2026-05-03 20:40 | -34.81512 | -58.53850 | 83 ft | 1 kts | 349° |
| 2026-05-03 20:40 | -34.81510 | -58.53850 | 83 ft | 0 kts | 349° |